Terminal Aerodrome Forecast
Issued by NWS

Home | Current Version | Previous Version | Graphics & Text | Print | Product List | Glossary On
Versions: 1 2 3 4 5 6 7 8 9 10 11 12 13
000
FTUS43 KMPX 291700
TAFRNH
TAF
KRNH 291738Z 2918/3018 30010KT P6SM SCT050
      TEMPO 2919/2923 6SM -SHRA SCT030 BKN050
     FM300100 32004KT P6SM SCT100
     FM301500 32007KT P6SM SCT050=

USA.gov is the U.S. government's official web portal to all federal, state and local government web resources and services.